Abbeville, LA

11:27 PM CDT on October 01, 2014 (GMT -0500)
Acadiana Regional | Change Station
CLOSE
Current Station
Airport
Location: New Iberia,
Elevation: 23 ft
Nearby Weather Stations

Elev 23 ft 30.04 °N, 91.88 °W | Updated 27 minutes ago

Mostly Cloudy
Mostly Cloudy
78 °F
Feels Like 78 °F
N
6
Wind Variable Wind from SE

Today
High -- | Low -- °F
--% Chance of Precip.
Yesterday
High -- | Low -- °F
Precip. -- in
7:01 AM 6:53 PM
First Quarter, 54% visible
Pressure 29.92 in
Visibility 10.0 miles
Clouds Scattered Clouds 1600 ft
Mostly Cloudy 2100 ft
Mostly Cloudy 10000 ft
Dew Point 76 °F
Humidity 93%
Rainfall 0.96 in
Snow Depth Not available.
UV 0 out of 12
Pollen 7.30 out of 12
Air Quality Not available.
Flu Activity Not available.
SPECI KARA 020400Z AUTO 14005KT 10SM SCT016 BKN021 BKN100 26/24 A2992 RMK AO2 T02560244

More Conditions Fewer Conditions

Pressure 29.92 in
Visibility 10.0 miles
Clouds Scattered Clouds 1600 ft
Mostly Cloudy 2100 ft
Mostly Cloudy 10000 ft
Dew Point 76 °F
Humidity 93%
Rainfall 0.96 in
Snow Depth Not available.
UV 0 out of 12
Pollen 7.30 out of 12
Air Quality Not available.
Flu Activity Not available.
SPECI KARA 020400Z AUTO 14005KT 10SM SCT016 BKN021 BKN100 26/24 A2992 RMK AO2 T02560244

More Conditions Fewer Conditions

10-Day Weather Forecast

Almanac

Astronomy

Oct. 01, 2014 Rise Set
Actual Time 7:01 AM CDT 6:53 PM CDT
Civil Twilight 6:38 AM CDT 7:17 PM CDT
Nautical Twilight 6:10 AM CDT 7:45 PM CDT
Astronomical Twilight 5:42 AM CDT 8:13 PM CDT
Moon 1:45 PM CDT (10/1) No Moon Set
Length of Visible Light 12h 39m
Length of Day
11h 52m
Tomorrow will be 1m 47s shorter.
First Quarter, 54% of the Moon is Illuminated
Oct 2
First Quarter
Oct 8
Full
Oct 15
Last Quarter
Oct 23
New
Oct 30
First Quarter

Yesterday's Extremes

State Highs State Lows

Community

WunderPhotos

Upload Photos

1,758,186 photos uploaded!

Nearby

Snow Depth

Station Depth Elevation
No new snow has been reported.

Earthquake Activity

City Distance Mag. Time & Date
No recent earthquake activity has been reported nearby.
Minimum magnitude displayed is 2.5.

Coastal Water Temperatures

Place Temperature
Fresh Water Canal Locks, LA 82.9 °F
Amerada Pass, LA 78.1 °F

Nearby Weather Stations